sensor_id;sensor_type;location;lat;lon;timestamp;P1;durP1;ratioP1;P2;durP2;ratioP2
18125;SDS011;53956;52.442;13.284;2023-02-18T00:00:54;15.73;;;3.70;;
18125;SDS011;53956;52.442;13.284;2023-02-18T00:03:22;16.67;;;3.40;;
18125;SDS011;53956;52.442;13.284;2023-02-18T00:05:48;25.37;;;4.17;;
18125;SDS011;53956;52.442;13.284;2023-02-18T00:08:15;16.87;;;3.67;;
18125;SDS011;53956;52.442;13.284;2023-02-18T00:10:42;15.57;;;4.00;;
18125;SDS011;53956;52.442;13.284;2023-02-18T00:13:10;21.17;;;3.90;;
18125;SDS011;53956;52.442;13.284;2023-02-18T00:15:37;17.77;;;3.90;;
18125;SDS011;53956;52.442;13.284;2023-02-18T00:18:04;12.53;;;3.47;;
18125;SDS011;53956;52.442;13.284;2023-02-18T00:20:31;17.77;;;4.13;;
18125;SDS011;53956;52.442;13.284;2023-02-18T00:23:00;13.00;;;3.80;;
18125;SDS011;53956;52.442;13.284;2023-02-18T00:25:27;23.43;;;4.13;;
18125;SDS011;53956;52.442;13.284;2023-02-18T00:27:53;19.30;;;4.40;;
18125;SDS011;53956;52.442;13.284;2023-02-18T00:30:21;11.90;;;3.50;;
18125;SDS011;53956;52.442;13.284;2023-02-18T00:32:48;18.33;;;3.67;;
18125;SDS011;53956;52.442;13.284;2023-02-18T00:35:15;18.27;;;3.83;;
18125;SDS011;53956;52.442;13.284;2023-02-18T00:37:42;18.13;;;4.20;;
18125;SDS011;53956;52.442;13.284;2023-02-18T00:40:09;15.47;;;4.30;;
18125;SDS011;53956;52.442;13.284;2023-02-18T00:42:36;13.77;;;3.67;;
18125;SDS011;53956;52.442;13.284;2023-02-18T00:45:03;19.07;;;4.07;;
18125;SDS011;53956;52.442;13.284;2023-02-18T00:47:32;14.70;;;3.73;;
18125;SDS011;53956;52.442;13.284;2023-02-18T00:49:59;13.77;;;3.90;;
18125;SDS011;53956;52.442;13.284;2023-02-18T00:52:26;21.20;;;3.90;;
18125;SDS011;53956;52.442;13.284;2023-02-18T00:54:53;21.50;;;3.87;;
18125;SDS011;53956;52.442;13.284;2023-02-18T00:57:19;14.40;;;3.60;;
18125;SDS011;53956;52.442;13.284;2023-02-18T00:59:47;13.87;;;3.20;;
18125;SDS011;53956;52.442;13.284;2023-02-18T01:02:14;16.13;;;3.57;;
18125;SDS011;53956;52.442;13.284;2023-02-18T01:04:43;18.07;;;3.60;;
18125;SDS011;53956;52.442;13.284;2023-02-18T01:07:10;15.30;;;3.53;;
18125;SDS011;53956;52.442;13.284;2023-02-18T01:09:36;13.67;;;3.40;;
18125;SDS011;53956;52.442;13.284;2023-02-18T01:12:05;13.23;;;3.60;;
18125;SDS011;53956;52.442;13.284;2023-02-18T01:14:32;11.80;;;3.33;;
18125;SDS011;53956;52.442;13.284;2023-02-18T01:16:59;12.80;;;2.90;;
18125;SDS011;53956;52.442;13.284;2023-02-18T01:19:26;18.70;;;3.13;;
18125;SDS011;53956;52.442;13.284;2023-02-18T01:21:54;15.87;;;3.77;;
18125;SDS011;53956;52.442;13.284;2023-02-18T01:24:21;14.30;;;3.37;;
18125;SDS011;53956;52.442;13.284;2023-02-18T01:26:48;10.87;;;3.07;;
18125;SDS011;53956;52.442;13.284;2023-02-18T01:29:15;11.93;;;3.17;;
18125;SDS011;53956;52.442;13.284;2023-02-18T01:31:41;14.30;;;3.57;;
18125;SDS011;53956;52.442;13.284;2023-02-18T01:34:08;13.77;;;3.83;;
18125;SDS011;53956;52.442;13.284;2023-02-18T01:36:35;12.97;;;3.43;;
18125;SDS011;53956;52.442;13.284;2023-02-18T01:39:03;15.20;;;3.33;;
18125;SDS011;53956;52.442;13.284;2023-02-18T01:41:30;12.97;;;3.40;;
18125;SDS011;53956;52.442;13.284;2023-02-18T01:44:09;17.07;;;3.70;;
18125;SDS011;53956;52.442;13.284;2023-02-18T01:46:37;15.83;;;3.57;;
18125;SDS011;53956;52.442;13.284;2023-02-18T01:49:04;11.57;;;3.27;;
18125;SDS011;53956;52.442;13.284;2023-02-18T01:51:33;11.63;;;3.30;;
18125;SDS011;53956;52.442;13.284;2023-02-18T01:54:05;12.23;;;3.10;;
18125;SDS011;53956;52.442;13.284;2023-02-18T01:56:34;16.17;;;3.23;;
18125;SDS011;53956;52.442;13.284;2023-02-18T01:59:06;13.67;;;3.53;;
18125;SDS011;53956;52.442;13.284;2023-02-18T02:01:39;16.97;;;3.60;;
18125;SDS011;53956;52.442;13.284;2023-02-18T02:04:08;16.83;;;3.40;;
18125;SDS011;53956;52.442;13.284;2023-02-18T02:06:35;12.73;;;3.03;;
18125;SDS011;53956;52.442;13.284;2023-02-18T02:09:04;15.77;;;3.33;;
18125;SDS011;53956;52.442;13.284;2023-02-18T02:11:39;11.13;;;3.10;;
18125;SDS011;53956;52.442;13.284;2023-02-18T02:14:18;14.13;;;3.33;;
18125;SDS011;53956;52.442;13.284;2023-02-18T02:16:54;16.50;;;3.20;;
18125;SDS011;53956;52.442;13.284;2023-02-18T02:19:42;12.23;;;3.23;;
18125;SDS011;53956;52.442;13.284;2023-02-18T02:29:03;13.70;;;2.93;;
18125;SDS011;53956;52.442;13.284;2023-02-18T02:31:54;11.33;;;3.20;;
18125;SDS011;53956;52.442;13.284;2023-02-18T02:37:21;13.10;;;3.27;;
18125;SDS011;53956;52.442;13.284;2023-02-18T02:39:56;12.07;;;3.40;;
18125;SDS011;53956;52.442;13.284;2023-02-18T02:42:34;8.87;;;2.70;;
18125;SDS011;53956;52.442;13.284;2023-02-18T02:45:16;10.93;;;2.97;;
18125;SDS011;53956;52.442;13.284;2023-02-18T02:47:53;10.80;;;2.93;;
18125;SDS011;53956;52.442;13.284;2023-02-18T02:50:29;12.87;;;3.43;;
18125;SDS011;53956;52.442;13.284;2023-02-18T02:53:04;9.83;;;2.90;;
18125;SDS011;53956;52.442;13.284;2023-02-18T02:55:38;16.17;;;3.17;;
18125;SDS011;53956;52.442;13.284;2023-02-18T02:58:08;13.90;;;3.27;;
18125;SDS011;53956;52.442;13.284;2023-02-18T03:00:47;13.67;;;3.40;;
18125;SDS011;53956;52.442;13.284;2023-02-18T03:03:34;14.17;;;3.00;;
18125;SDS011;53956;52.442;13.284;2023-02-18T03:06:28;12.47;;;3.23;;
18125;SDS011;53956;52.442;13.284;2023-02-18T03:09:08;12.23;;;2.90;;
18125;SDS011;53956;52.442;13.284;2023-02-18T03:11:40;11.77;;;3.27;;
18125;SDS011;53956;52.442;13.284;2023-02-18T03:14:14;13.73;;;2.90;;
18125;SDS011;53956;52.442;13.284;2023-02-18T03:16:49;10.93;;;2.73;;
18125;SDS011;53956;52.442;13.284;2023-02-18T03:19:26;11.43;;;2.70;;
18125;SDS011;53956;52.442;13.284;2023-02-18T03:22:00;7.97;;;2.90;;
18125;SDS011;53956;52.442;13.284;2023-02-18T03:24:31;10.13;;;2.90;;
18125;SDS011;53956;52.442;13.284;2023-02-18T03:27:03;16.00;;;3.17;;
18125;SDS011;53956;52.442;13.284;2023-02-18T03:29:35;9.27;;;2.93;;
18125;SDS011;53956;52.442;13.284;2023-02-18T03:32:04;9.83;;;2.80;;
18125;SDS011;53956;52.442;13.284;2023-02-18T03:34:34;11.03;;;2.90;;
18125;SDS011;53956;52.442;13.284;2023-02-18T03:37:05;9.63;;;2.47;;
18125;SDS011;53956;52.442;13.284;2023-02-18T03:39:35;10.20;;;2.90;;
18125;SDS011;53956;52.442;13.284;2023-02-18T03:42:04;10.37;;;2.53;;
18125;SDS011;53956;52.442;13.284;2023-02-18T03:44:31;9.23;;;2.90;;
18125;SDS011;53956;52.442;13.284;2023-02-18T03:46:58;9.90;;;2.73;;
18125;SDS011;53956;52.442;13.284;2023-02-18T03:49:25;12.07;;;2.93;;
18125;SDS011;53956;52.442;13.284;2023-02-18T03:51:51;10.10;;;2.60;;
18125;SDS011;53956;52.442;13.284;2023-02-18T03:54:19;8.47;;;2.63;;
18125;SDS011;53956;52.442;13.284;2023-02-18T03:56:46;13.87;;;3.23;;
18125;SDS011;53956;52.442;13.284;2023-02-18T03:59:12;6.07;;;2.50;;
18125;SDS011;53956;52.442;13.284;2023-02-18T04:01:39;9.20;;;2.20;;
18125;SDS011;53956;52.442;13.284;2023-02-18T04:04:11;11.43;;;2.47;;
18125;SDS011;53956;52.442;13.284;2023-02-18T04:06:37;12.03;;;3.37;;
18125;SDS011;53956;52.442;13.284;2023-02-18T04:09:04;12.70;;;3.20;;
18125;SDS011;53956;52.442;13.284;2023-02-18T04:11:34;11.83;;;2.93;;
18125;SDS011;53956;52.442;13.284;2023-02-18T04:14:01;10.27;;;2.80;;
18125;SDS011;53956;52.442;13.284;2023-02-18T04:16:28;10.70;;;2.87;;
18125;SDS011;53956;52.442;13.284;2023-02-18T04:18:55;10.67;;;2.50;;
18125;SDS011;53956;52.442;13.284;2023-02-18T04:21:21;10.17;;;3.07;;
18125;SDS011;53956;52.442;13.284;2023-02-18T04:23:48;8.07;;;2.70;;
18125;SDS011;53956;52.442;13.284;2023-02-18T04:26:15;7.73;;;2.67;;
18125;SDS011;53956;52.442;13.284;2023-02-18T04:28:43;9.00;;;2.60;;
18125;SDS011;53956;52.442;13.284;2023-02-18T04:31:09;11.67;;;2.50;;
18125;SDS011;53956;52.442;13.284;2023-02-18T04:33:36;11.03;;;2.70;;
18125;SDS011;53956;52.442;13.284;2023-02-18T04:36:03;7.77;;;2.47;;
18125;SDS011;53956;52.442;13.284;2023-02-18T04:38:30;7.87;;;2.47;;
18125;SDS011;53956;52.442;13.284;2023-02-18T04:40:57;8.07;;;2.60;;
18125;SDS011;53956;52.442;13.284;2023-02-18T04:43:23;9.17;;;2.80;;
18125;SDS011;53956;52.442;13.284;2023-02-18T04:45:51;6.43;;;2.40;;
18125;SDS011;53956;52.442;13.284;2023-02-18T04:48:18;10.83;;;2.17;;
18125;SDS011;53956;52.442;13.284;2023-02-18T04:50:45;10.60;;;2.30;;
18125;SDS011;53956;52.442;13.284;2023-02-18T04:53:11;8.57;;;2.67;;
18125;SDS011;53956;52.442;13.284;2023-02-18T04:55:38;8.50;;;2.53;;
18125;SDS011;53956;52.442;13.284;2023-02-18T04:58:05;10.77;;;2.70;;
18125;SDS011;53956;52.442;13.284;2023-02-18T05:00:34;13.53;;;2.80;;
18125;SDS011;53956;52.442;13.284;2023-02-18T05:03:02;8.90;;;2.43;;
18125;SDS011;53956;52.442;13.284;2023-02-18T05:05:28;9.40;;;2.37;;
18125;SDS011;53956;52.442;13.284;2023-02-18T05:07:55;11.67;;;3.00;;
18125;SDS011;53956;52.442;13.284;2023-02-18T05:10:22;10.33;;;2.60;;
18125;SDS011;53956;52.442;13.284;2023-02-18T05:12:48;10.10;;;3.07;;
18125;SDS011;53956;52.442;13.284;2023-02-18T05:15:15;8.80;;;2.60;;
18125;SDS011;53956;52.442;13.284;2023-02-18T05:17:42;11.27;;;2.93;;
18125;SDS011;53956;52.442;13.284;2023-02-18T05:20:10;9.87;;;2.53;;
18125;SDS011;53956;52.442;13.284;2023-02-18T05:22:37;12.80;;;3.10;;
18125;SDS011;53956;52.442;13.284;2023-02-18T05:25:05;9.47;;;2.60;;
18125;SDS011;53956;52.442;13.284;2023-02-18T05:27:32;7.67;;;2.40;;
18125;SDS011;53956;52.442;13.284;2023-02-18T05:29:59;8.93;;;2.60;;
18125;SDS011;53956;52.442;13.284;2023-02-18T05:32:25;8.97;;;2.90;;
18125;SDS011;53956;52.442;13.284;2023-02-18T05:34:52;10.17;;;2.70;;
18125;SDS011;53956;52.442;13.284;2023-02-18T05:37:20;9.33;;;2.30;;
18125;SDS011;53956;52.442;13.284;2023-02-18T05:39:47;14.87;;;3.13;;
18125;SDS011;53956;52.442;13.284;2023-02-18T05:42:13;10.57;;;2.83;;
18125;SDS011;53956;52.442;13.284;2023-02-18T05:44:40;8.23;;;2.73;;
18125;SDS011;53956;52.442;13.284;2023-02-18T05:47:07;7.77;;;2.23;;
18125;SDS011;53956;52.442;13.284;2023-02-18T05:49:35;10.07;;;2.77;;
18125;SDS011;53956;52.442;13.284;2023-02-18T05:52:03;11.43;;;3.20;;
18125;SDS011;53956;52.442;13.284;2023-02-18T05:54:32;9.17;;;2.60;;
18125;SDS011;53956;52.442;13.284;2023-02-18T05:56:59;12.67;;;2.70;;
18125;SDS011;53956;52.442;13.284;2023-02-18T05:59:26;6.87;;;2.30;;
18125;SDS011;53956;52.442;13.284;2023-02-18T06:01:53;9.57;;;2.47;;
18125;SDS011;53956;52.442;13.284;2023-02-18T06:04:20;11.17;;;2.53;;
18125;SDS011;53956;52.442;13.284;2023-02-18T06:06:46;8.70;;;2.40;;
18125;SDS011;53956;52.442;13.284;2023-02-18T06:09:14;8.20;;;2.53;;
18125;SDS011;53956;52.442;13.284;2023-02-18T06:11:42;9.77;;;2.27;;
18125;SDS011;53956;52.442;13.284;2023-02-18T06:14:08;5.43;;;2.30;;
18125;SDS011;53956;52.442;13.284;2023-02-18T06:16:35;13.07;;;2.70;;
18125;SDS011;53956;52.442;13.284;2023-02-18T06:19:02;10.97;;;3.00;;
18125;SDS011;53956;52.442;13.284;2023-02-18T06:21:29;6.63;;;2.33;;
18125;SDS011;53956;52.442;13.284;2023-02-18T06:23:56;12.43;;;2.47;;
18125;SDS011;53956;52.442;13.284;2023-02-18T06:26:22;10.47;;;2.93;;
18125;SDS011;53956;52.442;13.284;2023-02-18T06:28:51;8.37;;;2.50;;
18125;SDS011;53956;52.442;13.284;2023-02-18T06:31:18;7.93;;;2.57;;
18125;SDS011;53956;52.442;13.284;2023-02-18T06:33:45;8.63;;;2.50;;
18125;SDS011;53956;52.442;13.284;2023-02-18T06:36:12;7.63;;;2.40;;
18125;SDS011;53956;52.442;13.284;2023-02-18T06:38:39;9.40;;;2.40;;
18125;SDS011;53956;52.442;13.284;2023-02-18T06:41:08;10.20;;;2.60;;
18125;SDS011;53956;52.442;13.284;2023-02-18T06:43:35;8.37;;;2.70;;
18125;SDS011;53956;52.442;13.284;2023-02-18T06:46:04;11.80;;;3.00;;
18125;SDS011;53956;52.442;13.284;2023-02-18T06:48:31;7.83;;;2.40;;
18125;SDS011;53956;52.442;13.284;2023-02-18T06:50:57;8.00;;;2.33;;
18125;SDS011;53956;52.442;13.284;2023-02-18T06:53:24;7.60;;;2.30;;
18125;SDS011;53956;52.442;13.284;2023-02-18T06:55:51;7.97;;;2.33;;
18125;SDS011;53956;52.442;13.284;2023-02-18T06:58:18;8.13;;;2.20;;
18125;SDS011;53956;52.442;13.284;2023-02-18T07:00:44;6.30;;;2.10;;
18125;SDS011;53956;52.442;13.284;2023-02-18T07:03:13;6.53;;;2.20;;
18125;SDS011;53956;52.442;13.284;2023-02-18T07:05:40;6.23;;;2.20;;
18125;SDS011;53956;52.442;13.284;2023-02-18T07:08:07;4.63;;;1.90;;
18125;SDS011;53956;52.442;13.284;2023-02-18T07:10:34;6.40;;;1.93;;
18125;SDS011;53956;52.442;13.284;2023-02-18T07:13:00;9.33;;;2.27;;
18125;SDS011;53956;52.442;13.284;2023-02-18T07:15:27;7.43;;;2.23;;
18125;SDS011;53956;52.442;13.284;2023-02-18T07:17:54;6.03;;;2.07;;
18125;SDS011;53956;52.442;13.284;2023-02-18T07:20:23;6.37;;;2.10;;
18125;SDS011;53956;52.442;13.284;2023-02-18T07:22:50;5.33;;;2.23;;
18125;SDS011;53956;52.442;13.284;2023-02-18T07:25:17;5.87;;;2.00;;
18125;SDS011;53956;52.442;13.284;2023-02-18T07:27:43;8.70;;;2.20;;
18125;SDS011;53956;52.442;13.284;2023-02-18T07:30:10;8.93;;;2.30;;
18125;SDS011;53956;52.442;13.284;2023-02-18T07:32:38;6.73;;;2.13;;
18125;SDS011;53956;52.442;13.284;2023-02-18T07:35:05;5.70;;;2.03;;
18125;SDS011;53956;52.442;13.284;2023-02-18T07:37:33;6.03;;;2.10;;
18125;SDS011;53956;52.442;13.284;2023-02-18T07:40:00;5.90;;;2.30;;
18125;SDS011;53956;52.442;13.284;2023-02-18T07:42:27;7.17;;;2.10;;
18125;SDS011;53956;52.442;13.284;2023-02-18T07:44:53;5.83;;;2.20;;
18125;SDS011;53956;52.442;13.284;2023-02-18T07:47:20;8.20;;;1.97;;
18125;SDS011;53956;52.442;13.284;2023-02-18T07:49:47;7.57;;;2.20;;
18125;SDS011;53956;52.442;13.284;2023-02-18T07:52:14;8.73;;;2.50;;
18125;SDS011;53956;52.442;13.284;2023-02-18T07:54:42;6.10;;;2.40;;
18125;SDS011;53956;52.442;13.284;2023-02-18T07:57:09;7.03;;;2.53;;
18125;SDS011;53956;52.442;13.284;2023-02-18T07:59:36;6.20;;;2.30;;
18125;SDS011;53956;52.442;13.284;2023-02-18T08:02:03;6.93;;;2.27;;
18125;SDS011;53956;52.442;13.284;2023-02-18T08:04:31;7.47;;;2.63;;
18125;SDS011;53956;52.442;13.284;2023-02-18T08:06:58;9.37;;;2.30;;
18125;SDS011;53956;52.442;13.284;2023-02-18T08:09:25;5.70;;;2.27;;
18125;SDS011;53956;52.442;13.284;2023-02-18T08:11:53;10.20;;;2.53;;
18125;SDS011;53956;52.442;13.284;2023-02-18T08:14:20;7.63;;;2.97;;
18125;SDS011;53956;52.442;13.284;2023-02-18T08:16:46;9.07;;;2.80;;
18125;SDS011;53956;52.442;13.284;2023-02-18T08:19:13;9.30;;;2.80;;
18125;SDS011;53956;52.442;13.284;2023-02-18T08:21:40;8.30;;;2.70;;
18125;SDS011;53956;52.442;13.284;2023-02-18T08:24:06;8.73;;;2.83;;
18125;SDS011;53956;52.442;13.284;2023-02-18T08:26:33;7.70;;;2.37;;
18125;SDS011;53956;52.442;13.284;2023-02-18T08:29:01;7.00;;;2.40;;
18125;SDS011;53956;52.442;13.284;2023-02-18T08:31:28;8.43;;;2.53;;
18125;SDS011;53956;52.442;13.284;2023-02-18T08:33:56;5.43;;;2.10;;
18125;SDS011;53956;52.442;13.284;2023-02-18T08:36:25;10.53;;;2.57;;
18125;SDS011;53956;52.442;13.284;2023-02-18T08:38:51;7.70;;;2.37;;
18125;SDS011;53956;52.442;13.284;2023-02-18T08:41:18;7.47;;;2.50;;
18125;SDS011;53956;52.442;13.284;2023-02-18T08:43:45;5.87;;;2.50;;
18125;SDS011;53956;52.442;13.284;2023-02-18T08:46:13;7.93;;;2.73;;
18125;SDS011;53956;52.442;13.284;2023-02-18T08:48:41;8.63;;;2.50;;
18125;SDS011;53956;52.442;13.284;2023-02-18T08:51:11;7.47;;;2.67;;
18125;SDS011;53956;52.442;13.284;2023-02-18T08:53:40;6.80;;;2.57;;
18125;SDS011;53956;52.442;13.284;2023-02-18T08:56:07;8.60;;;2.90;;
18125;SDS011;53956;52.442;13.284;2023-02-18T08:58:34;8.63;;;3.10;;
18125;SDS011;53956;52.442;13.284;2023-02-18T09:01:01;6.77;;;2.50;;
18125;SDS011;53956;52.442;13.284;2023-02-18T09:03:31;11.10;;;2.83;;
18125;SDS011;53956;52.442;13.284;2023-02-18T09:05:58;10.60;;;2.50;;
18125;SDS011;53956;52.442;13.284;2023-02-18T09:08:25;8.00;;;2.77;;
18125;SDS011;53956;52.442;13.284;2023-02-18T09:10:53;9.23;;;2.80;;
18125;SDS011;53956;52.442;13.284;2023-02-18T09:13:21;9.37;;;3.50;;
18125;SDS011;53956;52.442;13.284;2023-02-18T09:15:54;9.87;;;3.37;;
18125;SDS011;53956;52.442;13.284;2023-02-18T09:18:22;8.57;;;3.50;;
18125;SDS011;53956;52.442;13.284;2023-02-18T09:20:50;7.50;;;3.20;;
18125;SDS011;53956;52.442;13.284;2023-02-18T09:23:16;10.03;;;3.30;;
18125;SDS011;53956;52.442;13.284;2023-02-18T09:25:45;12.20;;;3.70;;
18125;SDS011;53956;52.442;13.284;2023-02-18T09:28:11;8.00;;;3.50;;
18125;SDS011;53956;52.442;13.284;2023-02-18T09:30:38;9.47;;;3.67;;
18125;SDS011;53956;52.442;13.284;2023-02-18T09:33:05;14.87;;;5.87;;
18125;SDS011;53956;52.442;13.284;2023-02-18T09:35:32;10.27;;;3.63;;
18125;SDS011;53956;52.442;13.284;2023-02-18T09:38:00;9.67;;;3.57;;
18125;SDS011;53956;52.442;13.284;2023-02-18T09:40:28;10.67;;;3.43;;
18125;SDS011;53956;52.442;13.284;2023-02-18T09:42:58;6.70;;;3.10;;
18125;SDS011;53956;52.442;13.284;2023-02-18T09:45:25;12.87;;;3.80;;
18125;SDS011;53956;52.442;13.284;2023-02-18T09:47:53;9.57;;;3.20;;
18125;SDS011;53956;52.442;13.284;2023-02-18T09:50:21;10.73;;;3.47;;
18125;SDS011;53956;52.442;13.284;2023-02-18T09:52:51;9.27;;;3.23;;
18125;SDS011;53956;52.442;13.284;2023-02-18T09:55:20;9.00;;;3.43;;
18125;SDS011;53956;52.442;13.284;2023-02-18T09:57:49;10.90;;;3.37;;
18125;SDS011;53956;52.442;13.284;2023-02-18T10:00:19;7.57;;;2.97;;
18125;SDS011;53956;52.442;13.284;2023-02-18T10:02:52;9.40;;;3.80;;
18125;SDS011;53956;52.442;13.284;2023-02-18T10:05:20;12.53;;;4.07;;
18125;SDS011;53956;52.442;13.284;2023-02-18T10:07:48;9.30;;;3.20;;
18125;SDS011;53956;52.442;13.284;2023-02-18T10:10:24;8.97;;;3.53;;
18125;SDS011;53956;52.442;13.284;2023-02-18T10:12:58;9.37;;;3.30;;
18125;SDS011;53956;52.442;13.284;2023-02-18T10:15:26;8.87;;;3.40;;
18125;SDS011;53956;52.442;13.284;2023-02-18T10:17:55;9.47;;;3.57;;
18125;SDS011;53956;52.442;13.284;2023-02-18T10:20:24;11.43;;;3.63;;
18125;SDS011;53956;52.442;13.284;2023-02-18T10:22:53;9.53;;;3.10;;
18125;SDS011;53956;52.442;13.284;2023-02-18T10:25:24;8.67;;;3.67;;
18125;SDS011;53956;52.442;13.284;2023-02-18T10:27:52;7.07;;;3.80;;
18125;SDS011;53956;52.442;13.284;2023-02-18T10:30:23;8.50;;;3.43;;
18125;SDS011;53956;52.442;13.284;2023-02-18T10:32:55;8.17;;;3.77;;
18125;SDS011;53956;52.442;13.284;2023-02-18T10:35:28;9.50;;;3.87;;
18125;SDS011;53956;52.442;13.284;2023-02-18T10:38:05;9.73;;;3.60;;
18125;SDS011;53956;52.442;13.284;2023-02-18T10:40:44;11.97;;;3.60;;
18125;SDS011;53956;52.442;13.284;2023-02-18T10:43:19;11.47;;;3.73;;
18125;SDS011;53956;52.442;13.284;2023-02-18T10:45:51;6.53;;;3.20;;
18125;SDS011;53956;52.442;13.284;2023-02-18T10:48:28;7.83;;;3.30;;
18125;SDS011;53956;52.442;13.284;2023-02-18T10:51:10;7.20;;;3.53;;
18125;SDS011;53956;52.442;13.284;2023-02-18T10:53:41;10.33;;;3.60;;
18125;SDS011;53956;52.442;13.284;2023-02-18T10:56:16;7.17;;;3.60;;
18125;SDS011;53956;52.442;13.284;2023-02-18T10:59:00;7.30;;;3.37;;
18125;SDS011;53956;52.442;13.284;2023-02-18T11:01:30;8.37;;;3.40;;
18125;SDS011;53956;52.442;13.284;2023-02-18T11:04:04;11.57;;;3.70;;
18125;SDS011;53956;52.442;13.284;2023-02-18T11:06:37;10.53;;;3.37;;
18125;SDS011;53956;52.442;13.284;2023-02-18T11:09:06;8.47;;;3.17;;
18125;SDS011;53956;52.442;13.284;2023-02-18T11:11:38;6.13;;;3.33;;
18125;SDS011;53956;52.442;13.284;2023-02-18T11:14:06;6.80;;;3.37;;
18125;SDS011;53956;52.442;13.284;2023-02-18T11:16:36;6.13;;;2.73;;
18125;SDS011;53956;52.442;13.284;2023-02-18T11:19:04;6.37;;;3.40;;
18125;SDS011;53956;52.442;13.284;2023-02-18T11:21:33;8.07;;;2.87;;
18125;SDS011;53956;52.442;13.284;2023-02-18T11:24:06;4.20;;;2.67;;
18125;SDS011;53956;52.442;13.284;2023-02-18T11:26:35;4.13;;;2.87;;
18125;SDS011;53956;52.442;13.284;2023-02-18T11:29:06;5.63;;;2.70;;
18125;SDS011;53956;52.442;13.284;2023-02-18T11:31:40;3.50;;;2.80;;
18125;SDS011;53956;52.442;13.284;2023-02-18T11:34:13;5.00;;;2.97;;
18125;SDS011;53956;52.442;13.284;2023-02-18T11:36:42;4.00;;;2.50;;
18125;SDS011;53956;52.442;13.284;2023-02-18T11:39:14;4.13;;;2.70;;
18125;SDS011;53956;52.442;13.284;2023-02-18T11:41:45;3.60;;;2.60;;
18125;SDS011;53956;52.442;13.284;2023-02-18T11:44:19;5.23;;;2.87;;
18125;SDS011;53956;52.442;13.284;2023-02-18T11:46:55;3.43;;;2.93;;
18125;SDS011;53956;52.442;13.284;2023-02-18T11:49:24;3.10;;;2.80;;
18125;SDS011;53956;52.442;13.284;2023-02-18T11:51:51;3.53;;;2.90;;
18125;SDS011;53956;52.442;13.284;2023-02-18T11:54:22;4.80;;;3.20;;
18125;SDS011;53956;52.442;13.284;2023-02-18T11:56:55;5.73;;;3.53;;
18125;SDS011;53956;52.442;13.284;2023-02-18T11:59:24;6.50;;;3.60;;
18125;SDS011;53956;52.442;13.284;2023-02-18T12:01:53;4.13;;;3.33;;
18125;SDS011;53956;52.442;13.284;2023-02-18T12:04:25;4.83;;;3.63;;
18125;SDS011;53956;52.442;13.284;2023-02-18T12:06:56;4.70;;;3.20;;
18125;SDS011;53956;52.442;13.284;2023-02-18T12:09:32;4.03;;;3.47;;
18125;SDS011;53956;52.442;13.284;2023-02-18T12:12:04;4.60;;;3.47;;
18125;SDS011;53956;52.442;13.284;2023-02-18T12:14:35;5.23;;;3.37;;
18125;SDS011;53956;52.442;13.284;2023-02-18T12:17:09;4.17;;;3.37;;
18125;SDS011;53956;52.442;13.284;2023-02-18T12:19:53;5.07;;;4.13;;
18125;SDS011;53956;52.442;13.284;2023-02-18T12:22:40;4.33;;;3.87;;
18125;SDS011;53956;52.442;13.284;2023-02-18T12:25:14;5.37;;;3.70;;
18125;SDS011;53956;52.442;13.284;2023-02-18T12:27:52;6.10;;;4.30;;
18125;SDS011;53956;52.442;13.284;2023-02-18T12:30:31;6.03;;;3.97;;
18125;SDS011;53956;52.442;13.284;2023-02-18T12:33:13;7.63;;;5.03;;
18125;SDS011;53956;52.442;13.284;2023-02-18T12:35:49;7.03;;;4.80;;
18125;SDS011;53956;52.442;13.284;2023-02-18T12:38:32;5.77;;;4.43;;
18125;SDS011;53956;52.442;13.284;2023-02-18T12:41:22;5.73;;;4.57;;
18125;SDS011;53956;52.442;13.284;2023-02-18T12:44:00;5.63;;;4.57;;
18125;SDS011;53956;52.442;13.284;2023-02-18T12:46:42;6.50;;;4.80;;
18125;SDS011;53956;52.442;13.284;2023-02-18T12:49:27;5.87;;;5.03;;
18125;SDS011;53956;52.442;13.284;2023-02-18T12:52:13;5.83;;;4.80;;
18125;SDS011;53956;52.442;13.284;2023-02-18T12:55:00;7.10;;;4.83;;
18125;SDS011;53956;52.442;13.284;2023-02-18T12:57:51;5.80;;;4.60;;
18125;SDS011;53956;52.442;13.284;2023-02-18T13:03:47;6.23;;;5.03;;
18125;SDS011;53956;52.442;13.284;2023-02-18T13:09:21;5.37;;;4.73;;
18125;SDS011;53956;52.442;13.284;2023-02-18T13:12:00;4.93;;;4.43;;
18125;SDS011;53956;52.442;13.284;2023-02-18T13:14:37;4.57;;;4.13;;
18125;SDS011;53956;52.442;13.284;2023-02-18T13:17:10;5.77;;;4.60;;
18125;SDS011;53956;52.442;13.284;2023-02-18T13:19:42;4.70;;;3.87;;
18125;SDS011;53956;52.442;13.284;2023-02-18T13:22:14;4.23;;;3.83;;
18125;SDS011;53956;52.442;13.284;2023-02-18T13:24:42;4.10;;;3.70;;
18125;SDS011;53956;52.442;13.284;2023-02-18T13:27:13;3.60;;;3.30;;
18125;SDS011;53956;52.442;13.284;2023-02-18T13:29:46;4.10;;;3.70;;
18125;SDS011;53956;52.442;13.284;2023-02-18T13:32:20;4.00;;;3.60;;
18125;SDS011;53956;52.442;13.284;2023-02-18T13:34:54;3.90;;;3.60;;
18125;SDS011;53956;52.442;13.284;2023-02-18T13:37:31;4.80;;;3.80;;
18125;SDS011;53956;52.442;13.284;2023-02-18T13:40:04;4.53;;;3.80;;
18125;SDS011;53956;52.442;13.284;2023-02-18T13:42:41;4.73;;;4.07;;
18125;SDS011;53956;52.442;13.284;2023-02-18T13:47:52;5.03;;;4.10;;
18125;SDS011;53956;52.442;13.284;2023-02-18T13:50:25;4.50;;;4.10;;
18125;SDS011;53956;52.442;13.284;2023-02-18T13:55:49;4.43;;;4.03;;
18125;SDS011;53956;52.442;13.284;2023-02-18T13:58:23;4.93;;;4.10;;
18125;SDS011;53956;52.442;13.284;2023-02-18T14:00:55;4.70;;;4.30;;
18125;SDS011;53956;52.442;13.284;2023-02-18T14:03:31;5.23;;;4.63;;
18125;SDS011;53956;52.442;13.284;2023-02-18T14:06:11;4.80;;;4.30;;
18125;SDS011;53956;52.442;13.284;2023-02-18T14:08:39;4.77;;;4.17;;
18125;SDS011;53956;52.442;13.284;2023-02-18T14:11:23;5.07;;;4.57;;
18125;SDS011;53956;52.442;13.284;2023-02-18T14:14:13;5.20;;;4.53;;
18125;SDS011;53956;52.442;13.284;2023-02-18T14:20:05;4.77;;;4.37;;
18125;SDS011;53956;52.442;13.284;2023-02-18T14:26:22;5.23;;;4.73;;
18125;SDS011;53956;52.442;13.284;2023-02-18T14:28:54;4.90;;;4.50;;
18125;SDS011;53956;52.442;13.284;2023-02-18T14:37:28;4.00;;;3.70;;
18125;SDS011;53956;52.442;13.284;2023-02-18T14:40:10;4.10;;;3.80;;
18125;SDS011;53956;52.442;13.284;2023-02-18T14:42:51;4.40;;;4.00;;
18125;SDS011;53956;52.442;13.284;2023-02-18T14:45:28;3.67;;;3.37;;
18125;SDS011;53956;52.442;13.284;2023-02-18T14:48:13;3.70;;;3.37;;
18125;SDS011;53956;52.442;13.284;2023-02-18T14:51:00;4.27;;;3.30;;
18125;SDS011;53956;52.442;13.284;2023-02-18T14:53:27;3.60;;;3.30;;
18125;SDS011;53956;52.442;13.284;2023-02-18T14:55:57;3.27;;;2.97;;
18125;SDS011;53956;52.442;13.284;2023-02-18T14:58:29;3.23;;;2.93;;
18125;SDS011;53956;52.442;13.284;2023-02-18T15:01:04;3.47;;;3.13;;
18125;SDS011;53956;52.442;13.284;2023-02-18T15:03:31;3.47;;;2.70;;
18125;SDS011;53956;52.442;13.284;2023-02-18T15:05:58;2.93;;;2.70;;
18125;SDS011;53956;52.442;13.284;2023-02-18T15:08:25;2.97;;;2.40;;
18125;SDS011;53956;52.442;13.284;2023-02-18T15:10:52;2.60;;;2.40;;
18125;SDS011;53956;52.442;13.284;2023-02-18T15:13:25;2.50;;;2.30;;
18125;SDS011;53956;52.442;13.284;2023-02-18T15:15:56;2.73;;;2.27;;
18125;SDS011;53956;52.442;13.284;2023-02-18T15:18:27;4.37;;;2.40;;
18125;SDS011;53956;52.442;13.284;2023-02-18T15:20:59;3.43;;;2.50;;